Time;durP1;ratioP1;P1;durP2;ratioP2;P2;SDS_P1;SDS_P2;PMS_P1;PMS_P2;Temp;Humidity;BMP_temperature;BMP_pressure;BME280_temperature;BME280_humidity;BME280_pressure;Samples;Min_cycle;Max_cycle;Signal;HPM_P1;HPM_P2
2023/05/17 00:00:36;;;;;;;;;;;10.10;77.20;;;;;;5050772;28;19913;-80
2023/05/17 00:03:02;;;;;;;;;;;10.00;77.50;;;;;;5038055;28;19917;-80
2023/05/17 00:05:27;;;;;;;;;;;10.00;77.40;;;;;;5031197;28;19928;-79
2023/05/17 00:07:53;;;;;;;;;;;10.00;77.30;;;;;;5035547;28;19925;-81
2023/05/17 00:10:18;;;;;;;;;;;10.00;77.60;;;;;;5033636;28;20277;-80
2023/05/17 00:12:45;;;;;;;;;;;9.90;77.90;;;;;;5033964;28;19913;-81
2023/05/17 00:15:10;;;;;;;;;;;9.90;77.90;;;;;;5034611;28;19913;-80
2023/05/17 00:17:36;;;;;;;;;;;9.90;78.00;;;;;;5027756;28;19945;-81
2023/05/17 00:20:03;;;;;;;;;;;9.80;78.20;;;;;;5034081;28;20066;-80
2023/05/17 00:22:28;;;;;;;;;;;9.70;79.20;;;;;;5035077;28;19920;-81
2023/05/17 00:24:54;;;;;;;;;;;9.80;79.10;;;;;;5033974;28;19912;-80
2023/05/17 00:27:19;;;;;;;;;;;9.70;79.70;;;;;;5033217;28;19913;-80
2023/05/17 00:29:45;;;;;;;;;;;9.80;79.80;;;;;;5034097;28;19995;-81
2023/05/17 00:32:10;;;;;;;;;;;9.80;79.10;;;;;;5033843;28;19913;-81
2023/05/17 00:34:36;;;;;;;;;;;9.80;79.50;;;;;;5040614;28;19956;-80
2023/05/17 00:37:04;;;;;;;;;;;9.80;79.00;;;;;;5036501;28;19920;-81
2023/05/17 00:39:29;;;;;;;;;;;9.80;79.30;;;;;;5033354;28;19920;-80
2023/05/17 00:41:59;;;;;;;;;;;9.70;79.70;;;;;;5036148;28;19909;-80
2023/05/17 00:44:25;;;;;;;;;;;9.60;79.90;;;;;;5047797;22;20444;-82
2023/05/17 00:46:50;;;;;;;;;;;9.60;80.40;;;;;;5027883;28;19949;-83
2023/05/17 00:49:16;;;;;;;;;;;9.70;79.60;;;;;;5030329;28;19925;-83
2023/05/17 00:51:41;;;;;;;;;;;9.70;79.60;;;;;;5028091;28;19913;-83
2023/05/17 00:54:07;;;;;;;;;;;9.60;79.80;;;;;;5027932;28;20086;-82
2023/05/17 00:56:32;;;;;;;;;;;9.70;79.80;;;;;;5029371;28;19991;-83
2023/05/17 00:58:58;;;;;;;;;;;9.70;80.10;;;;;;5027550;28;19913;-83
2023/05/17 01:01:25;;;;;;;;;;;9.70;80.00;;;;;;5031273;28;20401;-83
2023/05/17 01:03:50;;;;;;;;;;;9.70;79.90;;;;;;5032882;28;19957;-82
2023/05/17 01:06:16;;;;;;;;;;;9.80;79.70;;;;;;5027886;28;20468;-83
2023/05/17 01:08:42;;;;;;;;;;;9.70;79.40;;;;;;5027924;28;19917;-83
2023/05/17 01:11:22;;;;;;;;;;;9.60;79.70;;;;;;5027582;28;19955;-82
2023/05/17 01:13:53;;;;;;;;;;;9.60;79.60;;;;;;5031668;28;19920;-82
2023/05/17 01:16:26;;;;;;;;;;;9.50;80.10;;;;;;5025684;28;19970;-83
2023/05/17 01:18:57;;;;;;;;;;;9.50;80.30;;;;;;5028876;28;20029;-83
2023/05/17 01:21:29;;;;;;;;;;;9.50;80.60;;;;;;5029868;28;19914;-83
2023/05/17 01:24:02;;;;;;;;;;;9.40;80.60;;;;;;5027322;28;19943;-82
2023/05/17 01:26:42;;;;;;;;;;;9.30;80.80;;;;;;5027570;28;19913;-83
2023/05/17 01:29:08;;;;;;;;;;;9.30;81.30;;;;;;5027628;28;19917;-82
2023/05/17 01:31:35;;;;;;;;;;;9.40;80.90;;;;;;5036456;28;19913;-82
2023/05/17 01:34:00;;;;;;;;;;;9.40;81.10;;;;;;5030582;28;19917;-83
2023/05/17 01:36:26;;;;;;;;;;;9.30;80.90;;;;;;5029632;28;19920;-82
2023/05/17 01:38:51;;;;;;;;;;;9.30;81.10;;;;;;5024781;28;20021;-82
2023/05/17 01:41:25;;;;;;;;;;;9.30;81.30;;;;;;5040881;28;19913;-81
2023/05/17 01:43:58;;;;;;;;;;;9.20;81.10;;;;;;5053699;28;19905;-82
2023/05/17 01:46:24;;;;;;;;;;;9.20;81.60;;;;;;5040153;28;20009;-83
2023/05/17 01:49:10;;;;;;;;;;;9.30;81.40;;;;;;5034477;28;19956;-83
2023/05/17 01:51:55;;;;;;;;;;;9.40;81.00;;;;;;5024363;28;19921;-83
2023/05/17 01:54:22;;;;;;;;;;;9.30;80.80;;;;;;5029829;28;20295;-83
2023/05/17 01:56:50;;;;;;;;;;;9.20;80.80;;;;;;5027307;28;19976;-82
2023/05/17 01:59:20;;;;;;;;;;;9.20;81.30;;;;;;5038549;28;20383;-83
2023/05/17 02:01:47;;;;;;;;;;;9.20;81.00;;;;;;5032784;28;19918;-83
2023/05/17 02:04:12;;;;;;;;;;;9.20;81.60;;;;;;5035213;28;19913;-82
2023/05/17 02:06:38;;;;;;;;;;;9.20;81.50;;;;;;5033960;28;19932;-83
2023/05/17 02:09:03;;;;;;;;;;;9.10;81.30;;;;;;5033984;28;19928;-83
2023/05/17 02:11:29;;;;;;;;;;;9.10;81.60;;;;;;5037769;28;20011;-83
2023/05/17 02:13:55;;;;;;;;;;;9.10;81.60;;;;;;5032438;28;19913;-82
2023/05/17 02:16:20;;;;;;;;;;;9.10;81.70;;;;;;5034543;28;20016;-83
2023/05/17 02:18:45;;;;;;;;;;;9.10;81.80;;;;;;5033940;28;19919;-83
2023/05/17 02:21:12;;;;;;;;;;;9.10;81.90;;;;;;5034079;28;19913;-83
2023/05/17 02:23:37;;;;;;;;;;;9.00;82.00;;;;;;5034721;28;19963;-84
2023/05/17 02:26:03;;;;;;;;;;;8.90;82.50;;;;;;5040589;28;19913;-83
2023/05/17 02:28:28;;;;;;;;;;;9.00;82.40;;;;;;5036259;28;19981;-83
2023/05/17 02:30:55;;;;;;;;;;;9.00;82.40;;;;;;5039217;28;19913;-83
2023/05/17 02:33:21;;;;;;;;;;;9.10;82.50;;;;;;5032603;28;19913;-82
2023/05/17 02:35:47;;;;;;;;;;;9.10;82.10;;;;;;5046176;28;19921;-83
2023/05/17 02:38:13;;;;;;;;;;;9.00;82.60;;;;;;5031131;28;19913;-82
2023/05/17 02:40:40;;;;;;;;;;;8.90;82.80;;;;;;5027100;28;19925;-82
2023/05/17 02:43:05;;;;;;;;;;;9.10;83.10;;;;;;5033218;28;19920;-82
2023/05/17 02:45:31;;;;;;;;;;;9.00;82.90;;;;;;5036891;28;20060;-83
2023/05/17 02:47:56;;;;;;;;;;;8.90;83.40;;;;;;5034898;28;19963;-82
2023/05/17 02:50:22;;;;;;;;;;;9.00;82.90;;;;;;5037792;28;19913;-82
2023/05/17 02:52:47;;;;;;;;;;;9.10;82.60;;;;;;5031002;28;19957;-83
2023/05/17 02:55:12;;;;;;;;;;;9.00;82.70;;;;;;5035355;28;19940;-83
2023/05/17 02:57:38;;;;;;;;;;;9.00;83.00;;;;;;5027851;28;19917;-82
2023/05/17 03:00:04;;;;;;;;;;;9.00;82.80;;;;;;5037456;28;19913;-82
2023/05/17 03:02:30;;;;;;;;;;;8.90;82.80;;;;;;5038681;28;19963;-83
2023/05/17 03:04:55;;;;;;;;;;;8.80;83.40;;;;;;5036328;28;20180;-83
2023/05/17 03:07:21;;;;;;;;;;;8.80;83.90;;;;;;5040147;28;19943;-83
2023/05/17 03:09:46;;;;;;;;;;;8.80;83.60;;;;;;5048830;28;19913;-83
2023/05/17 03:12:12;;;;;;;;;;;8.70;84.20;;;;;;5035772;28;20008;-82
2023/05/17 03:14:37;;;;;;;;;;;8.70;84.50;;;;;;5034105;28;19920;-83
2023/05/17 03:17:03;;;;;;;;;;;8.80;84.60;;;;;;5033529;28;19920;-83
2023/05/17 03:19:28;;;;;;;;;;;8.90;84.90;;;;;;5035111;28;19928;-83
2023/05/17 03:21:54;;;;;;;;;;;9.00;84.40;;;;;;5044469;28;20397;-83
2023/05/17 03:24:19;;;;;;;;;;;9.00;83.90;;;;;;5035494;28;19914;-83
2023/05/17 03:26:45;;;;;;;;;;;9.00;83.80;;;;;;5033230;28;19920;-83
2023/05/17 03:29:10;;;;;;;;;;;9.10;83.40;;;;;;5035309;28;19925;-83
2023/05/17 03:31:36;;;;;;;;;;;9.10;83.30;;;;;;5033094;28;19913;-83
2023/05/17 03:34:01;;;;;;;;;;;9.20;82.90;;;;;;5035814;28;19963;-83
2023/05/17 03:36:27;;;;;;;;;;;9.10;83.40;;;;;;5032348;28;19939;-81
2023/05/17 03:38:52;;;;;;;;;;;9.10;83.90;;;;;;5031673;28;19921;-83
2023/05/17 03:41:18;;;;;;;;;;;9.20;84.00;;;;;;5038203;28;19913;-82
2023/05/17 03:43:43;;;;;;;;;;;9.30;83.60;;;;;;5029725;28;19917;-82
2023/05/17 03:46:09;;;;;;;;;;;9.30;83.60;;;;;;5028988;28;19916;-82
2023/05/17 03:48:34;;;;;;;;;;;9.40;84.10;;;;;;5046804;28;19924;-83
2023/05/17 03:50:59;;;;;;;;;;;9.50;83.00;;;;;;5032811;28;19920;-83
2023/05/17 03:53:25;;;;;;;;;;;9.40;83.60;;;;;;5028570;28;20386;-82
2023/05/17 03:55:50;;;;;;;;;;;9.40;83.80;;;;;;5029622;28;19914;-83
2023/05/17 03:58:17;;;;;;;;;;;9.40;84.00;;;;;;5028918;28;20015;-82
2023/05/17 04:00:42;;;;;;;;;;;9.50;83.80;;;;;;5033325;28;19956;-82
2023/05/17 04:03:07;;;;;;;;;;;9.60;83.90;;;;;;5031727;28;19913;-82
2023/05/17 04:05:33;;;;;;;;;;;9.70;83.80;;;;;;5027936;28;19921;-82
2023/05/17 04:07:58;;;;;;;;;;;9.70;83.30;;;;;;5024544;28;19966;-82
2023/05/17 04:10:24;;;;;;;;;;;9.60;83.50;;;;;;5030004;28;19964;-82
2023/05/17 04:12:49;;;;;;;;;;;9.70;83.60;;;;;;5030431;28;19913;-82
2023/05/17 04:15:15;;;;;;;;;;;9.70;83.60;;;;;;5030591;28;20401;-83
2023/05/17 04:17:40;;;;;;;;;;;9.80;84.00;;;;;;5048150;28;19939;-83
2023/05/17 04:20:06;;;;;;;;;;;9.70;83.80;;;;;;5050047;28;19921;-83
2023/05/17 04:22:31;;;;;;;;;;;9.70;83.90;;;;;;5033885;28;19937;-82
2023/05/17 04:24:57;;;;;;;;;;;9.80;83.90;;;;;;5032026;28;19913;-82
2023/05/17 04:27:22;;;;;;;;;;;9.80;83.70;;;;;;5036628;28;19967;-82
2023/05/17 04:29:48;;;;;;;;;;;9.90;83.50;;;;;;5041540;28;19932;-83
2023/05/17 04:32:13;;;;;;;;;;;9.80;83.90;;;;;;5028847;28;19920;-82
2023/05/17 04:34:39;;;;;;;;;;;9.80;83.80;;;;;;5033567;28;19913;-82
2023/05/17 04:37:05;;;;;;;;;;;9.80;83.50;;;;;;5031177;28;19920;-80
2023/05/17 04:39:31;;;;;;;;;;;9.80;84.10;;;;;;5032098;28;19914;-80
2023/05/17 04:41:56;;;;;;;;;;;9.90;83.40;;;;;;5042549;28;19913;-80
2023/05/17 04:44:22;;;;;;;;;;;9.80;83.60;;;;;;5034322;28;19917;-80
2023/05/17 04:46:47;;;;;;;;;;;9.80;83.70;;;;;;5032406;28;19982;-80
2023/05/17 04:49:13;;;;;;;;;;;9.70;83.60;;;;;;5045710;28;20054;-80
2023/05/17 04:51:38;;;;;;;;;;;9.90;83.20;;;;;;5024807;28;19917;-80
2023/05/17 04:54:07;;;;;;;;;;;9.70;83.60;;;;;;5029765;28;19916;-80
2023/05/17 04:56:35;;;;;;;;;;;9.70;83.80;;;;;;5027602;28;19932;-82
2023/05/17 04:59:01;;;;;;;;;;;9.60;84.30;;;;;;5031083;28;19920;-82
2023/05/17 05:01:29;;;;;;;;;;;9.60;84.10;;;;;;5024725;28;19983;-82
2023/05/17 05:03:55;;;;;;;;;;;9.60;84.60;;;;;;5029576;28;19914;-82
2023/05/17 05:06:21;;;;;;;;;;;9.60;84.90;;;;;;5027413;28;20016;-82
2023/05/17 05:08:46;;;;;;;;;;;9.60;85.10;;;;;;5035460;28;19948;-85
2023/05/17 05:11:12;;;;;;;;;;;9.60;84.80;;;;;;5032608;28;19914;-82
2023/05/17 05:13:37;;;;;;;;;;;9.80;84.20;;;;;;5026700;28;20691;-82
2023/05/17 05:16:03;;;;;;;;;;;9.90;84.10;;;;;;5031427;28;20346;-81
2023/05/17 05:18:29;;;;;;;;;;;10.00;84.00;;;;;;5028816;28;19917;-81
2023/05/17 05:20:55;;;;;;;;;;;10.10;83.60;;;;;;5025244;28;19920;-82
2023/05/17 05:23:20;;;;;;;;;;;10.30;82.50;;;;;;5032862;28;19921;-81
2023/05/17 05:25:46;;;;;;;;;;;10.30;81.80;;;;;;5066579;28;19897;-81
2023/05/17 05:28:11;;;;;;;;;;;10.50;81.80;;;;;;5051900;28;19980;-82
2023/05/17 05:30:37;;;;;;;;;;;10.60;80.10;;;;;;5027239;28;19921;-87
2023/05/17 05:33:02;;;;;;;;;;;10.90;79.50;;;;;;5020444;28;19917;-83
2023/05/17 05:35:28;;;;;;;;;;;11.10;78.00;;;;;;5027706;28;19918;-84
2023/05/17 05:37:55;;;;;;;;;;;11.00;78.50;;;;;;5030054;28;19920;-87
2023/05/17 05:40:32;;;;;;;;;;;11.30;77.20;;;;;;5040067;28;20350;-89
2023/05/17 05:42:57;;;;;;;;;;;11.60;75.10;;;;;;5031085;28;19913;-84
2023/05/17 05:45:49;;;;;;;;;;;11.50;75.70;;;;;;5030208;28;19913;-83
2023/05/17 05:48:17;;;;;;;;;;;11.50;74.00;;;;;;5034352;28;19913;-85
2023/05/17 05:50:53;;;;;;;;;;;11.60;75.20;;;;;;5040669;28;20357;-83
2023/05/17 05:53:21;;;;;;;;;;;11.70;74.70;;;;;;5035176;28;19913;-84
2023/05/17 05:55:48;;;;;;;;;;;11.70;74.40;;;;;;5033853;28;19956;-83
2023/05/17 05:58:13;;;;;;;;;;;11.70;72.50;;;;;;5032723;28;19921;-84
2023/05/17 06:00:39;;;;;;;;;;;11.50;72.90;;;;;;5032716;28;19917;-83
2023/05/17 06:03:05;;;;;;;;;;;11.30;74.10;;;;;;5034833;28;19993;-83
2023/05/17 06:05:30;;;;;;;;;;;11.10;73.40;;;;;;5033219;28;19924;-84
2023/05/17 06:07:56;;;;;;;;;;;11.10;73.00;;;;;;5033229;28;19987;-84
2023/05/17 06:10:22;;;;;;;;;;;11.00;74.00;;;;;;5040383;28;19913;-83
2023/05/17 06:12:48;;;;;;;;;;;10.90;73.50;;;;;;5032767;28;20337;-84
2023/05/17 06:15:13;;;;;;;;;;;11.00;72.80;;;;;;5033565;28;19909;-84
2023/05/17 06:17:39;;;;;;;;;;;11.00;72.80;;;;;;5032183;28;20363;-83
2023/05/17 06:20:04;;;;;;;;;;;11.00;72.60;;;;;;5035152;28;19913;-83
2023/05/17 06:22:30;;;;;;;;;;;11.10;70.90;;;;;;5039458;28;19909;-84
2023/05/17 06:24:55;;;;;;;;;;;11.20;71.20;;;;;;5030878;28;19910;-83
2023/05/17 06:27:21;;;;;;;;;;;11.10;72.70;;;;;;5034823;28;19973;-83
2023/05/17 06:29:46;;;;;;;;;;;11.00;73.00;;;;;;5040102;28;20327;-84
2023/05/17 06:32:11;;;;;;;;;;;11.00;73.20;;;;;;5045089;28;20325;-83
2023/05/17 06:34:38;;;;;;;;;;;11.10;72.40;;;;;;5035585;28;20405;-83
2023/05/17 06:37:04;;;;;;;;;;;10.80;72.80;;;;;;5033573;28;20299;-84
2023/05/17 06:39:29;;;;;;;;;;;10.80;73.30;;;;;;5029163;28;19913;-83
2023/05/17 06:41:55;;;;;;;;;;;10.80;74.10;;;;;;5044413;28;19928;-83
2023/05/17 06:44:20;;;;;;;;;;;11.00;73.00;;;;;;5034410;28;19917;-83
2023/05/17 06:46:46;;;;;;;;;;;11.00;73.00;;;;;;5034724;28;20032;-82
2023/05/17 06:49:11;;;;;;;;;;;11.30;70.90;;;;;;5035599;28;19920;-83
2023/05/17 06:51:37;;;;;;;;;;;11.30;69.50;;;;;;5033932;28;19948;-83
2023/05/17 06:54:02;;;;;;;;;;;11.20;68.60;;;;;;5028089;28;20336;-82
2023/05/17 06:56:27;;;;;;;;;;;11.10;69.30;;;;;;5032278;28;19920;-83
2023/05/17 06:58:53;;;;;;;;;;;11.00;68.40;;;;;;5034600;28;19929;-84
2023/05/17 07:01:19;;;;;;;;;;;11.00;68.10;;;;;;5029651;28;19940;-83
2023/05/17 07:03:44;;;;;;;;;;;10.90;68.60;;;;;;5035779;28;19920;-83
2023/05/17 07:06:10;;;;;;;;;;;10.90;68.90;;;;;;5031984;28;20433;-84
2023/05/17 07:08:35;;;;;;;;;;;11.00;69.40;;;;;;5030283;28;20031;-84
2023/05/17 07:11:04;;;;;;;;;;;11.20;66.40;;;;;;5031478;28;19913;-84
2023/05/17 07:13:29;;;;;;;;;;;11.50;65.70;;;;;;5029191;28;19917;-84
2023/05/17 07:15:55;;;;;;;;;;;11.60;65.80;;;;;;5033398;28;19939;-83
2023/05/17 07:18:20;;;;;;;;;;;11.50;65.60;;;;;;5037414;28;19916;-85
2023/05/17 07:20:46;;;;;;;;;;;11.60;65.90;;;;;;5036709;28;19913;-85
2023/05/17 07:23:11;;;;;;;;;;;11.60;65.10;;;;;;5034422;28;19916;-85
2023/05/17 07:25:41;;;;;;;;;;;11.80;63.30;;;;;;5032700;28;19921;-85
2023/05/17 07:28:07;;;;;;;;;;;11.80;62.00;;;;;;5033288;28;19928;-83
2023/05/17 07:30:33;;;;;;;;;;;11.90;62.50;;;;;;5031856;28;20298;-85
2023/05/17 07:32:58;;;;;;;;;;;11.90;60.30;;;;;;5034974;28;19913;-84
2023/05/17 07:35:23;;;;;;;;;;;11.90;59.20;;;;;;5020111;28;19924;-85
2023/05/17 07:37:49;;;;;;;;;;;11.90;60.10;;;;;;5030294;28;19917;-84
2023/05/17 07:40:14;;;;;;;;;;;12.00;60.60;;;;;;5030060;28;19959;-85
2023/05/17 07:42:40;;;;;;;;;;;12.00;60.30;;;;;;5031782;28;19913;-84
2023/05/17 07:45:06;;;;;;;;;;;12.10;59.00;;;;;;5031951;28;20008;-84
2023/05/17 07:47:31;;;;;;;;;;;12.10;59.70;;;;;;5041810;28;19958;-84
2023/05/17 07:49:57;;;;;;;;;;;12.10;60.00;;;;;;5024676;28;19935;-83
2023/05/17 07:52:22;;;;;;;;;;;12.10;60.10;;;;;;5039229;28;20008;-83
2023/05/17 07:54:48;;;;;;;;;;;12.10;60.20;;;;;;5031920;28;19913;-84
2023/05/17 07:57:13;;;;;;;;;;;12.10;59.60;;;;;;5030733;28;19983;-84
2023/05/17 07:59:39;;;;;;;;;;;12.10;60.60;;;;;;5031123;28;19913;-84
2023/05/17 08:02:04;;;;;;;;;;;12.20;60.30;;;;;;5031102;28;20442;-84
2023/05/17 08:04:30;;;;;;;;;;;12.20;61.40;;;;;;5028534;28;19913;-84
2023/05/17 08:07:01;;;;;;;;;;;12.20;61.30;;;;;;5034200;28;20371;-83
2023/05/17 08:09:26;;;;;;;;;;;12.20;59.50;;;;;;5031611;28;19921;-83
2023/05/17 08:11:54;;;;;;;;;;;12.30;58.40;;;;;;5032067;28;19932;-84
2023/05/17 08:14:22;;;;;;;;;;;12.10;59.30;;;;;;5032750;28;19917;-83
2023/05/17 08:17:07;;;;;;;;;;;;;;;;;;;;;
2023/05/17 08:19:39;;;;;;;;;;;12.10;58.90;;;;;;5032637;28;19913;-84
2023/05/17 08:22:08;;;;;;;;;;;12.10;58.80;;;;;;5029184;28;19955;-85
2023/05/17 08:24:40;;;;;;;;;;;12.20;59.40;;;;;;5031625;28;20295;-84
2023/05/17 08:27:24;;;;;;;;;;;12.20;60.00;;;;;;5044468;28;19935;-85
2023/05/17 08:29:50;;;;;;;;;;;12.20;60.30;;;;;;5025523;28;19925;-85
2023/05/17 08:32:18;;;;;;;;;;;12.30;59.00;;;;;;5028997;28;19921;-85
2023/05/17 08:34:46;;;;;;;;;;;12.10;59.00;;;;;;5027878;28;19913;-84
2023/05/17 08:37:11;;;;;;;;;;;12.30;58.40;;;;;;5028123;28;20424;-85
2023/05/17 08:39:37;;;;;;;;;;;12.20;58.80;;;;;;5023069;28;19975;-84
2023/05/17 08:42:06;;;;;;;;;;;12.30;58.70;;;;;;5024586;28;19920;-85
2023/05/17 08:44:31;;;;;;;;;;;12.50;58.30;;;;;;5026964;28;19917;-85
2023/05/17 08:46:58;;;;;;;;;;;12.50;58.30;;;;;;5017990;28;19964;-86
2023/05/17 08:49:24;;;;;;;;;;;12.50;59.40;;;;;;5026519;28;19921;-84
2023/05/17 08:51:52;;;;;;;;;;;12.50;57.50;;;;;;5022191;28;19931;-84
2023/05/17 08:54:17;;;;;;;;;;;12.50;57.30;;;;;;5036149;28;19921;-84
2023/05/17 08:56:43;;;;;;;;;;;12.50;57.60;;;;;;5038630;28;19939;-83
2023/05/17 08:59:10;;;;;;;;;;;12.50;58.60;;;;;;5025196;28;20200;-83
2023/05/17 09:01:38;;;;;;;;;;;12.50;57.10;;;;;;5027882;28;20401;-85
2023/05/17 09:04:05;;;;;;;;;;;12.40;57.40;;;;;;5018605;28;20036;-84
2023/05/17 09:06:32;;;;;;;;;;;12.20;57.50;;;;;;5030491;28;19929;-84
2023/05/17 09:09:00;;;;;;;;;;;12.10;57.20;;;;;;5043096;28;19962;-83
2023/05/17 09:11:26;;;;;;;;;;;12.10;56.40;;;;;;5046773;28;19905;-84
2023/05/17 09:13:52;;;;;;;;;;;12.20;57.70;;;;;;5045084;28;19921;-85
2023/05/17 09:16:20;;;;;;;;;;;12.40;56.80;;;;;;5028084;28;19963;-85
2023/05/17 09:18:52;;;;;;;;;;;12.50;57.60;;;;;;5041138;28;19913;-86
2023/05/17 09:21:18;;;;;;;;;;;12.50;58.20;;;;;;5036053;28;19971;-85
2023/05/17 09:23:45;;;;;;;;;;;12.60;57.30;;;;;;5037772;28;20344;-85
2023/05/17 09:26:12;;;;;;;;;;;12.60;56.40;;;;;;5036932;28;19969;-85
2023/05/17 09:28:43;;;;;;;;;;;12.50;57.70;;;;;;5035838;28;19949;-86
2023/05/17 09:31:12;;;;;;;;;;;12.60;56.30;;;;;;5035463;28;19976;-85
2023/05/17 09:33:44;;;;;;;;;;;12.60;55.80;;;;;;5045532;28;19933;-85
2023/05/17 09:36:20;;;;;;;;;;;12.60;55.70;;;;;;5054859;28;19920;-85
2023/05/17 09:38:51;;;;;;;;;;;12.70;56.60;;;;;;5038733;28;20004;-84
2023/05/17 09:41:17;;;;;;;;;;;12.80;56.70;;;;;;5054059;28;19920;-86
2023/05/17 09:43:42;;;;;;;;;;;12.80;56.30;;;;;;5044811;28;20282;-85
2023/05/17 09:46:08;;;;;;;;;;;12.90;54.50;;;;;;5033805;28;19960;-85
2023/05/17 09:48:36;;;;;;;;;;;12.90;55.80;;;;;;5033885;28;20003;-86
2023/05/17 09:51:02;;;;;;;;;;;12.90;55.50;;;;;;5028190;28;19920;-85
2023/05/17 09:53:27;;;;;;;;;;;13.00;53.70;;;;;;5048354;28;19909;-86
2023/05/17 09:55:54;;;;;;;;;;;13.20;54.10;;;;;;5041785;28;19920;-85
2023/05/17 09:58:20;;;;;;;;;;;13.20;54.70;;;;;;5046986;28;20573;-91
2023/05/17 10:00:49;;;;;;;;;;;13.10;56.10;;;;;;5053212;28;19909;-86
2023/05/17 10:03:14;;;;;;;;;;;13.00;56.30;;;;;;5053521;28;19915;-86
2023/05/17 10:05:42;;;;;;;;;;;12.70;55.70;;;;;;5043623;28;19999;-86
2023/05/17 10:08:08;;;;;;;;;;;12.70;55.10;;;;;;5040909;28;19925;-86
2023/05/17 10:10:35;;;;;;;;;;;12.90;53.80;;;;;;5044488;28;19919;-86
2023/05/17 10:13:04;;;;;;;;;;;13.10;54.00;;;;;;5029839;28;19917;-85
2023/05/17 10:15:30;;;;;;;;;;;13.50;52.20;;;;;;5030306;28;20377;-86
2023/05/17 10:17:55;;;;;;;;;;;13.40;54.10;;;;;;5033611;28;20006;-85
2023/05/17 10:20:21;;;;;;;;;;;13.40;53.60;;;;;;5042586;28;19917;-86
2023/05/17 10:22:47;;;;;;;;;;;13.30;53.10;;;;;;5032960;28;19916;-85
2023/05/17 10:25:13;;;;;;;;;;;13.30;53.50;;;;;;5032896;28;19909;-85
2023/05/17 10:27:38;;;;;;;;;;;13.30;53.10;;;;;;5040731;28;20374;-86
2023/05/17 10:30:04;;;;;;;;;;;13.30;54.10;;;;;;5046348;28;20389;-86
2023/05/17 10:32:30;;;;;;;;;;;13.60;51.60;;;;;;5054961;28;19909;-86
2023/05/17 10:34:56;;;;;;;;;;;13.90;51.50;;;;;;5053886;28;19931;-87
2023/05/17 10:37:21;;;;;;;;;;;13.80;52.90;;;;;;5047119;28;19935;-86
2023/05/17 10:39:47;;;;;;;;;;;14.10;51.70;;;;;;5045702;28;19913;-86
2023/05/17 10:42:15;;;;;;;;;;;13.70;52.60;;;;;;5055104;28;19916;-85
2023/05/17 10:44:41;;;;;;;;;;;13.80;52.60;;;;;;5043693;28;19921;-86
2023/05/17 10:47:07;;;;;;;;;;;13.70;53.70;;;;;;5035689;28;19964;-85
2023/05/17 10:49:35;;;;;;;;;;;13.40;51.50;;;;;;5035791;28;20009;-86
2023/05/17 10:52:22;;;;;;;;;;;13.40;50.50;;;;;;5033940;28;19909;-86
2023/05/17 10:54:51;;;;;;;;;;;13.40;50.70;;;;;;5033865;28;19909;-87
2023/05/17 10:57:18;;;;;;;;;;;13.60;49.50;;;;;;5036697;28;20023;-86
2023/05/17 10:59:57;;;;;;;;;;;13.70;51.50;;;;;;5044889;28;20337;-86
2023/05/17 11:02:23;;;;;;;;;;;13.90;52.00;;;;;;5054195;28;19912;-86
2023/05/17 11:04:52;;;;;;;;;;;13.80;52.00;;;;;;5053125;28;19909;-86
2023/05/17 11:07:20;;;;;;;;;;;13.80;52.50;;;;;;5046691;28;19923;-86
2023/05/17 11:09:53;;;;;;;;;;;13.70;50.80;;;;;;5043452;28;19982;-86
2023/05/17 11:12:35;;;;;;;;;;;13.70;50.50;;;;;;5044234;28;19909;-87
2023/05/17 11:15:10;;;;;;;;;;;13.50;50.30;;;;;;5039459;28;19910;-88
2023/05/17 11:17:42;;;;;;;;;;;13.60;50.10;;;;;;5034478;28;20007;-87
2023/05/17 11:20:09;;;;;;;;;;;13.80;47.60;;;;;;5044259;28;20007;-87
2023/05/17 11:22:36;;;;;;;;;;;14.10;48.20;;;;;;5052804;28;19909;-86
2023/05/17 11:25:05;;;;;;;;;;;14.10;49.00;;;;;;5039080;28;19921;-86
2023/05/17 11:27:34;;;;;;;;;;;14.20;49.70;;;;;;5028565;28;19913;-86
2023/05/17 11:30:06;;;;;;;;;;;14.20;48.40;;;;;;5033257;28;20370;-86
2023/05/17 11:32:31;;;;;;;;;;;14.00;48.60;;;;;;5032434;28;19909;-87
2023/05/17 11:35:00;;;;;;;;;;;13.80;50.50;;;;;;5032809;28;20011;-85
2023/05/17 11:37:26;;;;;;;;;;;13.60;49.90;;;;;;5035687;28;19912;-87
2023/05/17 11:40:03;;;;;;;;;;;13.80;50.20;;;;;;5040799;28;20330;-86
2023/05/17 11:42:29;;;;;;;;;;;14.00;47.40;;;;;;5018660;28;20406;-86
2023/05/17 11:44:59;;;;;;;;;;;14.00;46.80;;;;;;5032405;28;19913;-86
2023/05/17 11:47:25;;;;;;;;;;;14.10;46.20;;;;;;5033575;28;19919;-87
2023/05/17 11:49:52;;;;;;;;;;;14.00;47.30;;;;;;5035755;28;19917;-87
2023/05/17 11:52:18;;;;;;;;;;;14.10;48.70;;;;;;5025672;28;19944;-86
2023/05/17 11:54:44;;;;;;;;;;;14.20;49.00;;;;;;5031276;28;20343;-87
2023/05/17 11:57:11;;;;;;;;;;;14.20;47.50;;;;;;5032156;28;19917;-86
2023/05/17 11:59:39;;;;;;;;;;;14.20;47.10;;;;;;5040650;28;20007;-86
2023/05/17 12:02:05;;;;;;;;;;;13.90;47.20;;;;;;5032018;28;19910;-84
2023/05/17 12:04:33;;;;;;;;;;;14.10;48.70;;;;;;5035596;28;19939;-83
2023/05/17 12:07:00;;;;;;;;;;;14.20;50.00;;;;;;5036162;28;19935;-85
2023/05/17 12:09:26;;;;;;;;;;;14.20;47.20;;;;;;5049040;28;19944;-88
2023/05/17 12:11:52;;;;;;;;;;;13.90;46.70;;;;;;5030186;28;20043;-87
2023/05/17 12:14:19;;;;;;;;;;;14.00;48.10;;;;;;5024416;28;19933;-85
2023/05/17 12:16:46;;;;;;;;;;;14.10;46.30;;;;;;5029828;28;19920;-85
2023/05/17 12:19:18;;;;;;;;;;;14.10;47.10;;;;;;5030887;28;20297;-84
2023/05/17 12:21:45;;;;;;;;;;;14.10;46.50;;;;;;5025434;28;19913;-85
2023/05/17 12:24:10;;;;;;;;;;;14.10;47.00;;;;;;5023971;28;19913;-84
2023/05/17 12:26:40;;;;;;;;;;;14.10;46.60;;;;;;5030208;28;19920;-86
2023/05/17 12:29:06;;;;;;;;;;;14.30;48.20;;;;;;5027966;28;19921;-85
2023/05/17 12:31:37;;;;;;;;;;;14.50;46.30;;;;;;5035370;28;20426;-84
2023/05/17 12:34:06;;;;;;;;;;;14.50;46.30;;;;;;5031068;28;19913;-83
2023/05/17 12:36:33;;;;;;;;;;;14.70;46.00;;;;;;5029762;28;19913;-84
2023/05/17 12:39:04;;;;;;;;;;;14.90;47.20;;;;;;5027232;28;19913;-85
2023/05/17 12:41:30;;;;;;;;;;;14.60;47.00;;;;;;5041457;28;19956;-86
2023/05/17 12:43:56;;;;;;;;;;;14.50;47.10;;;;;;5027716;28;19998;-85
2023/05/17 12:46:22;;;;;;;;;;;14.50;47.70;;;;;;5028362;28;19917;-84
2023/05/17 12:48:48;;;;;;;;;;;14.40;48.10;;;;;;5034122;28;19944;-83
2023/05/17 12:51:19;;;;;;;;;;;14.40;47.30;;;;;;5042806;28;19936;-84
2023/05/17 12:53:49;;;;;;;;;;;14.60;45.10;;;;;;5038003;28;20355;-86
2023/05/17 12:56:19;;;;;;;;;;;14.60;45.50;;;;;;5029976;28;19956;-88
2023/05/17 12:59:36;;;;;;;;;;;14.60;47.40;;;;;;5026970;28;19956;-86
2023/05/17 13:02:14;;;;;;;;;;;14.90;45.20;;;;;;4970213;28;20435;-87
2023/05/17 13:05:00;;;;;;;;;;;14.90;46.30;;;;;;5093772;22;20052;-86
2023/05/17 13:07:33;;;;;;;;;;;14.90;46.50;;;;;;5007955;28;20419;-86
2023/05/17 13:09:58;;;;;;;;;;;14.80;46.90;;;;;;5007611;28;19928;-85
2023/05/17 13:12:24;;;;;;;;;;;14.70;46.90;;;;;;5010263;28;19917;-87
2023/05/17 13:14:51;;;;;;;;;;;14.60;46.50;;;;;;5009879;28;19917;-86
2023/05/17 13:17:20;;;;;;;;;;;14.60;47.50;;;;;;5009658;28;19991;-85
2023/05/17 13:19:46;;;;;;;;;;;14.90;46.00;;;;;;5002381;28;20500;-86
2023/05/17 13:22:11;;;;;;;;;;;14.90;45.30;;;;;;5010627;28;19985;-86
2023/05/17 13:24:38;;;;;;;;;;;14.80;45.30;;;;;;5004905;28;19922;-87
2023/05/17 13:27:04;;;;;;;;;;;15.00;44.40;;;;;;5010370;28;20007;-87
2023/05/17 13:29:29;;;;;;;;;;;15.20;45.30;;;;;;4992033;28;20359;-87
2023/05/17 13:31:55;;;;;;;;;;;15.30;46.30;;;;;;4992137;28;19914;-87
2023/05/17 13:34:20;;;;;;;;;;;15.00;45.50;;;;;;5001947;28;20000;-87
2023/05/17 13:36:46;;;;;;;;;;;14.90;46.40;;;;;;5006501;28;19983;-86
2023/05/17 13:39:11;;;;;;;;;;;15.00;46.80;;;;;;5003854;28;19947;-87
2023/05/17 13:41:37;;;;;;;;;;;15.10;45.30;;;;;;5010289;28;19909;-86
2023/05/17 13:44:03;;;;;;;;;;;15.10;46.20;;;;;;5009095;28;19921;-86
2023/05/17 13:46:29;;;;;;;;;;;15.00;46.50;;;;;;5008093;28;19917;-86
2023/05/17 13:48:54;;;;;;;;;;;15.00;47.80;;;;;;5001419;28;19914;-86
2023/05/17 13:51:20;;;;;;;;;;;14.60;49.50;;;;;;5008890;28;19985;-86
2023/05/17 13:53:45;;;;;;;;;;;14.40;48.80;;;;;;5011165;28;19920;-86
2023/05/17 13:56:11;;;;;;;;;;;14.30;48.30;;;;;;5008056;28;19988;-86
2023/05/17 13:58:36;;;;;;;;;;;14.50;47.00;;;;;;4996858;28;20398;-86
2023/05/17 14:01:02;;;;;;;;;;;14.60;46.70;;;;;;5009761;28;20394;-86
2023/05/17 14:03:27;;;;;;;;;;;14.60;47.60;;;;;;5009816;28;20413;-86
2023/05/17 14:05:53;;;;;;;;;;;14.60;46.80;;;;;;4995546;28;19913;-87
2023/05/17 14:08:19;;;;;;;;;;;14.50;47.10;;;;;;5008997;28;19924;-87
2023/05/17 14:10:44;;;;;;;;;;;14.60;47.70;;;;;;5009019;28;19937;-85
2023/05/17 14:13:10;;;;;;;;;;;14.80;46.80;;;;;;4999201;28;19914;-87
2023/05/17 14:15:37;;;;;;;;;;;14.60;45.40;;;;;;4990966;28;19917;-86
2023/05/17 14:18:06;;;;;;;;;;;14.50;45.40;;;;;;5001234;28;19960;-87
2023/05/17 14:20:31;;;;;;;;;;;14.50;47.40;;;;;;5008698;28;20381;-87
2023/05/17 14:22:57;;;;;;;;;;;14.50;48.10;;;;;;4998114;28;19910;-87